To NAV CANADA Home Page Login to a new session Search on AWWS site Feedback and Comments Disclaimer Vers la page française équivalente Tips FAQ What's new on the site To the Forecasts and Observations / NOTAM section To "File a Flight Plan" website Publications and other links Update of the User's profile FIC Telephone Numbers My Weather Data Folder Route Weather Data Regional Weather Data Local Weather Data To the Forecasts and Observations / NOTAM section
Request Generated 04/24/2014 at 13:36:04 UTC . Weather information available at that time is displayed.

METAR/TAF

NORTH BATTLEFORD/SK    (show WxCam)

SPECI CYQW 241313Z AUTO 08008KT 3SM -SN OVC019 01/00 A2960 RMK
SLP043=
SPECI CYQW 241309Z AUTO 08009KT 2 1/2SM -SN OVC019 01/00 A2959 RMK
SLP042=
METAR CYQW 241300Z AUTO 08008KT 2 1/4SM -SN OVC017 01/00 A2959 RMK
SLP042=
SPECI CYQW 241256Z AUTO 08008KT 2 1/4SM -SN OVC017 01/00 A2959 RMK
SLP042=
SPECI CYQW 241254Z AUTO 08008KT 2 1/4SM -SNRA OVC017 01/00 A2959 RMK
SLP041=
SPECI CYQW 241250Z AUTO 08008KT 2 1/2SM -SNRA OVC017 01/00 A2959 RMK
SLP041=
SPECI CYQW 241250Z AUTO 08008KT 2 1/2SM -SNRA OVC017 01/00 A2959 RMK
SLP041=
SPECI CYQW 241236Z AUTO 09009KT 5SM -RA BR OVC017 01/01 A2958 RMK
SLP038=
SPECI CYQW 241223Z AUTO 09009G15KT 6SM -RA BR OVC015 01/01 A2958 RMK
SLP037=
SPECI CYQW 241210Z AUTO 09012KT 5SM -RA BR OVC015 01/01 A2958 RMK
SLP036=
METAR CYQW 241200Z AUTO 09011G17KT 9SM -RA OVC015 01/01 A2958 RMK
SLP036=
SPECI CYQW 241112Z AUTO 09013KT 6SM -RA BR OVC013 01/01 A2957 RMK
SLP032=
METAR CYQW 241100Z AUTO 09012KT 4SM -RA BR OVC013 01/01 A2956 RMK
SLP031=

TAF AMD CYQW 241303Z 2413/2424 09012KT 6SM -RA BR OVC012 TEMPO
2413/2419 21/2SM -SNRA BR BKN007 PROB40 2413/2417 OVC003
FM241900 02008KT P6SM OVC015 TEMPO 2419/2424 5SM -RA BR BKN008
RMK FCST BASED ON AUTO OBS. NXT FCST BY 241800Z=
Your time UTC time
Weather data provided by Environment Canada and NAV CANADA